createdAt,value
2019-04-07T00:00:48.624Z,7.20
2019-04-07T00:03:18.494Z,7.17
2019-04-07T00:05:48.346Z,7.12
2019-04-07T00:08:17.860Z,7.02
2019-04-07T00:10:47.826Z,7.02
2019-04-07T00:13:17.310Z,6.96
2019-04-07T00:15:46.755Z,6.99
2019-04-07T00:18:16.830Z,6.94
2019-04-07T00:20:47.353Z,6.95
2019-04-07T00:23:17.610Z,6.81
2019-04-07T00:25:47.954Z,6.84
2019-04-07T00:28:18.392Z,6.84
2019-04-07T00:30:47.895Z,6.93
2019-04-07T00:33:17.344Z,6.86
2019-04-07T00:35:46.890Z,6.77
2019-04-07T00:38:16.290Z,6.73
2019-04-07T00:40:45.724Z,6.60
2019-04-07T00:43:15.386Z,6.58
2019-04-07T00:45:45.028Z,6.48
2019-04-07T00:48:14.743Z,6.41
2019-04-07T00:50:44.901Z,6.36
2019-04-07T00:53:14.667Z,6.41
2019-04-07T00:55:45.000Z,6.30
2019-04-07T00:58:14.861Z,6.41
2019-04-07T01:00:44.602Z,6.43
2019-04-07T01:03:14.028Z,6.41
2019-04-07T01:05:43.740Z,6.40
2019-04-07T01:08:13.893Z,6.34
2019-04-07T01:10:43.652Z,6.31
2019-04-07T01:13:13.360Z,6.29
2019-04-07T01:15:43.452Z,6.25
2019-04-07T01:18:13.187Z,6.18
2019-04-07T01:20:43.009Z,6.15
2019-04-07T01:23:12.805Z,6.14
2019-04-07T01:25:42.629Z,6.16
2019-04-07T01:28:13.028Z,6.19
2019-04-07T01:30:42.702Z,6.09
2019-04-07T01:33:12.090Z,6.13
2019-04-07T01:35:48.278Z,6.19
2019-04-07T01:38:13.690Z,6.13
2019-04-07T01:40:45.442Z,6.10
2019-04-07T01:43:25.911Z,6.08
2019-04-07T01:45:58.937Z,6.05
2019-04-07T01:48:33.009Z,5.93
2019-04-07T01:51:04.498Z,5.89
2019-04-07T01:53:41.943Z,5.86
2019-04-07T01:56:13.160Z,5.83
2019-04-07T01:59:02.641Z,5.82
2019-04-07T02:01:39.646Z,5.77
2019-04-07T02:04:17.108Z,5.78
2019-04-07T02:06:48.692Z,5.79
2019-04-07T02:09:19.882Z,5.78
2019-04-07T02:12:06.921Z,5.76
2019-04-07T02:14:41.138Z,5.66
2019-04-07T02:17:30.295Z,5.68
2019-04-07T02:20:01.389Z,5.71
2019-04-07T02:22:32.776Z,5.74
2019-04-07T02:25:02.252Z,5.71
2019-04-07T02:27:39.578Z,5.69
2019-04-07T02:30:26.005Z,5.73
2019-04-07T02:32:58.384Z,5.68
2019-04-07T02:35:28.211Z,5.66
2019-04-07T02:38:06.246Z,5.64
2019-04-07T02:40:38.385Z,5.59
2019-04-07T02:43:25.719Z,5.57
2019-04-07T02:45:57.766Z,5.53
2019-04-07T02:48:38.036Z,5.54
2019-04-07T02:51:26.207Z,5.61
2019-04-07T02:54:00.649Z,5.66
2019-04-07T02:56:32.545Z,5.64
2019-04-07T02:59:02.070Z,5.60
2019-04-07T03:01:37.016Z,5.59
2019-04-07T03:04:09.575Z,5.48
2019-04-07T03:06:49.136Z,5.42
2019-04-07T03:09:26.010Z,5.39
2019-04-07T03:12:01.847Z,5.26
2019-04-07T03:14:33.538Z,5.29
2019-04-07T03:17:08.295Z,5.27
2019-04-07T03:19:39.639Z,5.28
2019-04-07T03:22:27.098Z,5.20
2019-04-07T03:25:15.590Z,5.19
2019-04-07T03:28:03.177Z,5.13
2019-04-07T03:30:44.970Z,5.16
2019-04-07T03:33:26.083Z,5.29
2019-04-07T03:36:02.619Z,5.27
2019-04-07T03:38:50.319Z,5.31
2019-04-07T03:41:21.383Z,5.14
2019-04-07T03:44:07.790Z,5.15
2019-04-07T03:46:42.976Z,5.17
2019-04-07T03:49:14.484Z,5.22
2019-04-07T03:51:54.266Z,5.15
2019-04-07T03:54:25.351Z,5.10
2019-04-07T03:56:54.819Z,5.04
2019-04-07T03:59:31.770Z,4.98
2019-04-07T04:02:19.678Z,4.96
2019-04-07T04:04:51.520Z,4.97
2019-04-07T04:07:31.484Z,4.93
2019-04-07T04:10:01.702Z,4.87
2019-04-07T04:12:41.965Z,4.82
2019-04-07T04:15:13.410Z,4.88
2019-04-07T04:17:42.845Z,4.91
2019-04-07T04:20:16.126Z,4.96
2019-04-07T04:22:46.479Z,4.98
2019-04-07T04:25:17.105Z,4.97
2019-04-07T04:27:47.083Z,4.94
2019-04-07T04:30:16.876Z,4.93
2019-04-07T04:32:47.714Z,5.00
2019-04-07T04:35:17.221Z,4.98
2019-04-07T04:37:51.470Z,4.98
2019-04-07T04:40:18.115Z,4.90
2019-04-07T04:42:48.590Z,4.78
2019-04-07T04:45:18.133Z,4.79
2019-04-07T04:47:48.235Z,4.88
2019-04-07T04:50:17.827Z,4.88
2019-04-07T04:52:47.253Z,4.87
2019-04-07T04:55:16.951Z,4.88
2019-04-07T04:57:46.620Z,4.89
2019-04-07T05:00:16.199Z,4.87
2019-04-07T05:02:46.845Z,4.81
2019-04-07T05:05:16.936Z,4.79
2019-04-07T05:07:55.852Z,4.80
2019-04-07T05:10:17.657Z,4.77
2019-04-07T05:12:47.220Z,4.86
2019-04-07T05:15:17.447Z,5.01
2019-04-07T05:17:47.304Z,4.96
2019-04-07T05:20:17.280Z,4.96
2019-04-07T05:22:47.550Z,5.02
2019-04-07T05:25:17.369Z,5.03
2019-04-07T05:27:46.972Z,5.16
2019-04-07T05:30:16.890Z,5.20
2019-04-07T05:32:46.927Z,5.22
2019-04-07T05:35:16.399Z,5.34
2019-04-07T05:37:46.101Z,5.43
2019-04-07T05:40:15.602Z,5.45
2019-04-07T05:42:45.482Z,5.49
2019-04-07T05:45:15.089Z,5.52
2019-04-07T05:47:48.765Z,5.60
2019-04-07T05:50:16.650Z,5.65
2019-04-07T05:52:46.589Z,5.68
2019-04-07T05:55:16.011Z,5.72
2019-04-07T05:57:45.455Z,5.75
2019-04-07T06:00:16.645Z,5.81
2019-04-07T06:02:47.107Z,5.85
2019-04-07T06:05:17.804Z,5.89
2019-04-07T06:07:48.136Z,5.87
2019-04-07T06:10:18.369Z,5.96
2019-04-07T06:12:49.200Z,6.05
2019-04-07T06:15:22.054Z,6.06
2019-04-07T06:17:50.264Z,6.12
2019-04-07T06:20:19.686Z,6.18
2019-04-07T06:22:52.847Z,6.24
2019-04-07T06:25:20.936Z,6.33
2019-04-07T06:27:51.040Z,6.40
2019-04-07T06:30:22.176Z,6.40
2019-04-07T06:32:52.718Z,6.43
2019-04-07T06:35:22.552Z,6.51
2019-04-07T06:37:52.143Z,6.59
2019-04-07T06:40:22.275Z,6.67
2019-04-07T06:42:53.196Z,6.73
2019-04-07T06:48:15.575Z,6.87
2019-04-07T06:50:57.803Z,7.01
2019-04-07T06:53:26.883Z,6.99
2019-04-07T06:56:14.328Z,7.07
2019-04-07T06:58:43.837Z,7.04
2019-04-07T07:01:27.450Z,7.10
2019-04-07T07:04:15.638Z,7.18
2019-04-07T07:06:52.927Z,7.20
2019-04-07T07:09:33.406Z,7.25
2019-04-07T07:12:18.318Z,7.32
2019-04-07T07:14:45.773Z,7.38
2019-04-07T07:17:19.537Z,7.50
2019-04-07T07:19:55.664Z,7.55
2019-04-07T07:22:25.746Z,7.61
2019-04-07T07:24:57.663Z,7.65
2019-04-07T07:27:27.364Z,7.78
2019-04-07T07:29:57.790Z,7.86
2019-04-07T07:32:28.098Z,7.88
2019-04-07T07:34:57.665Z,7.93
2019-04-07T07:37:28.006Z,7.93
2019-04-07T07:39:57.969Z,8.02
2019-04-07T07:42:27.784Z,8.03
2019-04-07T07:44:57.293Z,8.01
2019-04-07T07:47:27.488Z,8.07
2019-04-07T07:49:57.550Z,8.17
2019-04-07T07:52:27.028Z,8.19
2019-04-07T07:54:59.817Z,8.22
2019-04-07T07:57:27.964Z,8.27
2019-04-07T07:59:58.511Z,8.28
2019-04-07T08:02:29.826Z,8.32
2019-04-07T08:04:59.566Z,8.37
2019-04-07T08:07:30.158Z,8.37
2019-04-07T08:09:59.785Z,8.42
2019-04-07T08:12:32.395Z,8.45
2019-04-07T08:15:00.752Z,8.62
2019-04-07T08:17:33.156Z,8.67
2019-04-07T08:20:02.291Z,8.69
2019-04-07T08:22:39.261Z,8.68
2019-04-07T08:25:03.082Z,8.70
2019-04-07T08:27:33.163Z,8.72
2019-04-07T08:30:03.717Z,8.83
2019-04-07T08:32:34.252Z,8.82
2019-04-07T08:35:05.885Z,8.92
2019-04-07T08:37:36.467Z,9.07
2019-04-07T08:40:07.864Z,9.18
2019-04-07T08:42:38.124Z,9.27
2019-04-07T08:45:08.239Z,9.26
2019-04-07T08:47:38.080Z,9.27
2019-04-07T08:50:10.507Z,9.36
2019-04-07T08:52:42.477Z,9.47
2019-04-07T08:55:11.788Z,9.56
2019-04-07T08:57:42.247Z,9.70
2019-04-07T09:00:17.273Z,9.72
2019-04-07T09:02:46.508Z,9.83
2019-04-07T09:05:20.544Z,9.86
2019-04-07T09:07:48.788Z,9.94
2019-04-07T09:10:22.733Z,10.10
2019-04-07T09:12:52.179Z,10.11
2019-04-07T09:15:43.605Z,10.10
2019-04-07T09:18:18.125Z,10.23
2019-04-07T09:20:50.642Z,10.29
2019-04-07T09:23:20.149Z,10.39
2019-04-07T09:26:03.559Z,10.50
2019-04-07T09:28:37.876Z,10.62
2019-04-07T09:31:24.550Z,10.76
2019-04-07T09:33:58.414Z,10.90
2019-04-07T09:36:35.361Z,11.03
2019-04-07T09:39:12.346Z,11.12
2019-04-07T09:41:55.630Z,11.09
2019-04-07T09:44:34.020Z,11.13
2019-04-07T09:47:09.940Z,11.26
2019-04-07T09:49:56.790Z,11.62
2019-04-07T09:52:36.092Z,11.57
2019-04-07T09:55:26.414Z,11.70
2019-04-07T09:58:10.844Z,11.71
2019-04-07T10:00:42.190Z,11.81
2019-04-07T10:03:23.236Z,12.08
2019-04-07T10:05:54.663Z,12.08
2019-04-07T10:08:28.711Z,12.07
2019-04-07T10:11:04.197Z,12.18
2019-04-07T10:13:41.354Z,12.31
2019-04-07T10:16:32.965Z,12.50
2019-04-07T10:19:06.267Z,12.69
2019-04-07T10:21:54.090Z,12.85
2019-04-07T10:24:40.450Z,13.12
2019-04-07T10:27:12.528Z,13.24
2019-04-07T10:29:48.160Z,13.02
2019-04-07T10:32:26.790Z,13.08
2019-04-07T10:34:56.619Z,13.08
2019-04-07T10:37:36.785Z,13.00
2019-04-07T10:40:18.902Z,13.21
2019-04-07T10:42:42.563Z,13.45
2019-04-07T10:45:30.296Z,13.48
2019-04-07T10:48:11.732Z,13.49
2019-04-07T10:50:43.700Z,13.58
2019-04-07T10:53:15.921Z,13.65
2019-04-07T10:56:03.511Z,13.80
2019-04-07T10:58:35.403Z,14.18
2019-04-07T11:01:12.098Z,14.33
2019-04-07T11:03:53.599Z,14.37
2019-04-07T11:06:35.740Z,14.29
2019-04-07T11:09:08.009Z,14.35
2019-04-07T11:11:54.822Z,14.50
2019-04-07T11:14:26.948Z,14.62
2019-04-07T11:17:00.234Z,14.63
2019-04-07T11:19:47.735Z,14.67
2019-04-07T11:22:36.919Z,14.90
2019-04-07T11:25:26.210Z,14.90
2019-04-07T11:27:58.197Z,14.93
2019-04-07T11:30:42.041Z,15.12
2019-04-07T11:33:29.574Z,15.08
2019-04-07T11:36:20.124Z,14.87
2019-04-07T11:38:50.553Z,14.94
2019-04-07T11:41:37.303Z,14.97
2019-04-07T11:44:11.529Z,15.27
2019-04-07T11:46:46.413Z,15.33
2019-04-07T11:49:18.222Z,15.32
2019-04-07T11:51:49.464Z,15.46
2019-04-07T11:54:37.036Z,15.53
2019-04-07T11:57:11.888Z,15.48
2019-04-07T11:59:45.943Z,15.48
2019-04-07T12:02:21.611Z,15.47
2019-04-07T12:04:55.968Z,15.31
2019-04-07T12:07:31.299Z,15.25
2019-04-07T12:10:00.828Z,15.38
2019-04-07T12:12:37.530Z,15.38
2019-04-07T12:15:22.037Z,15.15
2019-04-07T12:18:08.742Z,15.20
2019-04-07T12:20:49.753Z,15.22
2019-04-07T12:23:25.679Z,15.05
2019-04-07T12:26:12.873Z,15.29
2019-04-07T12:28:50.352Z,15.25
2019-04-07T12:31:29.744Z,15.22
2019-04-07T12:34:03.894Z,15.30
2019-04-07T12:36:38.672Z,15.22
2019-04-07T12:39:18.738Z,15.14
2019-04-07T12:41:57.221Z,15.07
2019-04-07T12:44:41.868Z,15.19
2019-04-07T12:47:13.460Z,15.17
2019-04-07T12:49:45.506Z,15.11
2019-04-07T12:52:20.674Z,14.98
2019-04-07T12:54:58.262Z,15.03
2019-04-07T12:57:29.358Z,15.05
2019-04-07T13:00:00.445Z,14.98
2019-04-07T13:02:34.849Z,14.90
2019-04-07T13:05:09.275Z,14.84
2019-04-07T13:07:43.786Z,14.78
2019-04-07T13:10:16.801Z,14.92
2019-04-07T13:12:53.593Z,14.96
2019-04-07T13:15:33.589Z,14.92
2019-04-07T13:18:05.842Z,14.95
2019-04-07T13:20:36.629Z,14.86
2019-04-07T13:23:08.792Z,14.87
2019-04-07T13:25:40.674Z,14.89
2019-04-07T13:28:11.874Z,14.87
2019-04-07T13:30:58.995Z,14.97
2019-04-07T13:33:33.115Z,15.00
2019-04-07T13:36:02.736Z,14.99
2019-04-07T13:38:40.410Z,14.88
2019-04-07T13:41:18.321Z,14.90
2019-04-07T13:43:50.619Z,14.83
2019-04-07T13:46:38.899Z,14.72
2019-04-07T13:49:27.434Z,14.76
2019-04-07T13:52:00.597Z,14.83
2019-04-07T13:54:48.302Z,14.80
2019-04-07T13:57:26.199Z,14.79
2019-04-07T14:00:15.993Z,14.77
2019-04-07T14:02:50.047Z,14.79
2019-04-07T14:05:39.347Z,14.77
2019-04-07T14:08:10.367Z,14.72
2019-04-07T14:10:44.027Z,14.67
2019-04-07T14:13:19.786Z,14.75
2019-04-07T14:16:08.426Z,14.80
2019-04-07T14:18:55.897Z,14.92
2019-04-07T14:21:33.859Z,15.06
2019-04-07T14:24:11.419Z,15.08
2019-04-07T14:26:45.325Z,15.14
2019-04-07T14:29:16.989Z,15.20
2019-04-07T14:32:04.614Z,15.19
2019-04-07T14:34:53.001Z,15.21
2019-04-07T14:37:30.777Z,15.13
2019-04-07T14:40:08.154Z,15.07
2019-04-07T14:42:42.822Z,15.05
2019-04-07T14:45:15.666Z,15.13
2019-04-07T14:48:02.234Z,15.17
2019-04-07T14:50:40.848Z,15.10
2019-04-07T14:53:13.223Z,15.03
2019-04-07T14:56:05.825Z,15.08
2019-04-07T14:58:38.348Z,15.03
2019-04-07T15:01:10.718Z,15.12
2019-04-07T15:03:40.657Z,15.18
2019-04-07T15:06:10.912Z,15.12
2019-04-07T15:08:53.968Z,15.22
2019-04-07T15:11:23.765Z,15.20
2019-04-07T15:13:56.976Z,15.27
2019-04-07T15:16:24.474Z,15.19
2019-04-07T15:18:55.104Z,15.17
2019-04-07T15:21:25.359Z,15.12
2019-04-07T15:23:56.015Z,15.15
2019-04-07T15:26:25.636Z,15.16
2019-04-07T15:28:57.117Z,15.18
2019-04-07T15:31:26.448Z,15.24
2019-04-07T15:33:56.341Z,15.31
2019-04-07T15:36:26.429Z,15.21
2019-04-07T15:38:58.127Z,15.18
2019-04-07T15:41:27.557Z,15.18
2019-04-07T15:43:57.702Z,15.11
2019-04-07T15:46:28.812Z,15.14
2019-04-07T15:48:59.502Z,15.10
2019-04-07T15:51:29.452Z,15.10
2019-04-07T15:53:59.432Z,15.17
2019-04-07T15:56:29.197Z,15.07
2019-04-07T15:59:00.766Z,15.05
2019-04-07T16:01:30.067Z,15.05
2019-04-07T16:03:59.750Z,15.05
2019-04-07T16:06:30.071Z,15.01
2019-04-07T16:09:01.067Z,14.99
2019-04-07T16:11:32.669Z,14.98
2019-04-07T16:14:02.905Z,14.95
2019-04-07T16:16:32.940Z,14.94
2019-04-07T16:19:02.673Z,14.90
2019-04-07T16:21:33.174Z,14.88
2019-04-07T16:24:02.999Z,14.85
2019-04-07T16:26:35.869Z,14.88
2019-04-07T16:29:03.870Z,14.85
2019-04-07T16:31:33.380Z,14.83
2019-04-07T16:34:06.667Z,14.78
2019-04-07T16:36:35.481Z,14.75
2019-04-07T16:39:09.646Z,14.67
2019-04-07T16:41:40.376Z,14.70
2019-04-07T16:44:10.720Z,14.65
2019-04-07T16:46:41.058Z,14.65
2019-04-07T16:49:13.188Z,14.58
2019-04-07T16:51:41.670Z,14.59
2019-04-07T16:54:11.769Z,14.57
2019-04-07T16:56:41.416Z,14.57
2019-04-07T16:59:11.153Z,14.57
2019-04-07T17:01:40.869Z,14.56
2019-04-07T17:04:10.313Z,14.53
2019-04-07T17:06:40.179Z,14.54
2019-04-07T17:09:17.782Z,14.52
2019-04-07T17:11:49.305Z,14.52
2019-04-07T17:14:18.742Z,14.50
2019-04-07T17:16:48.506Z,14.45
2019-04-07T17:19:18.262Z,14.42
2019-04-07T17:21:47.714Z,14.45
2019-04-07T17:24:17.412Z,14.41
2019-04-07T17:26:47.218Z,14.38
2019-04-07T17:29:19.076Z,14.37
2019-04-07T17:31:48.651Z,14.31
2019-04-07T17:34:18.569Z,14.31
2019-04-07T17:36:50.669Z,14.31
2019-04-07T17:39:21.679Z,14.29
2019-04-07T17:41:52.026Z,14.26
2019-04-07T17:44:23.392Z,14.24
2019-04-07T17:46:58.882Z,14.23
2019-04-07T17:49:48.325Z,14.23
2019-04-07T17:52:19.755Z,14.19
2019-04-07T17:54:54.351Z,14.14
2019-04-07T17:57:34.857Z,14.16
2019-04-07T18:00:11.606Z,14.15
2019-04-07T18:02:57.185Z,14.11
2019-04-07T18:05:30.225Z,14.13
2019-04-07T18:07:59.447Z,14.08
2019-04-07T18:10:30.739Z,14.04
2019-04-07T18:13:22.809Z,14.01
2019-04-07T18:15:52.535Z,13.99
2019-04-07T18:18:24.914Z,13.97
2019-04-07T18:21:11.716Z,13.93
2019-04-07T18:23:43.954Z,13.96
2019-04-07T18:26:23.574Z,13.96
2019-04-07T18:29:13.594Z,13.93
2019-04-07T18:31:56.680Z,13.93
2019-04-07T18:34:33.547Z,13.88
2019-04-07T18:37:06.123Z,13.88
2019-04-07T18:39:58.093Z,13.83
2019-04-07T18:42:29.524Z,13.82
2019-04-07T18:45:01.687Z,13.78
2019-04-07T18:47:52.274Z,13.83
2019-04-07T18:50:22.854Z,13.82
2019-04-07T18:52:58.149Z,13.81
2019-04-07T18:55:30.647Z,13.77
2019-04-07T18:58:14.941Z,13.78
2019-04-07T19:01:04.180Z,13.84
2019-04-07T19:03:53.294Z,13.83
2019-04-07T19:06:42.190Z,13.82
2019-04-07T19:09:14.866Z,13.81
2019-04-07T19:11:47.254Z,13.78
2019-04-07T19:14:41.942Z,13.76
2019-04-07T19:17:02.859Z,13.80
2019-04-07T19:19:35.524Z,13.80
2019-04-07T19:22:21.331Z,13.76
2019-04-07T19:25:11.646Z,13.79
2019-04-07T19:28:00.150Z,13.80
2019-04-07T19:30:46.891Z,13.83
2019-04-07T19:33:33.525Z,13.81
2019-04-07T19:36:21.373Z,13.80
2019-04-07T19:38:52.862Z,13.81
2019-04-07T19:41:42.316Z,13.77
2019-04-07T19:44:15.394Z,13.78
2019-04-07T19:47:03.098Z,13.74
2019-04-07T19:49:38.936Z,13.72
2019-04-07T19:52:26.367Z,13.68
2019-04-07T19:54:58.589Z,13.65
2019-04-07T19:57:46.956Z,13.61
2019-04-07T20:00:26.164Z,13.59
2019-04-07T20:03:13.513Z,13.56
2019-04-07T20:05:51.614Z,13.56
2019-04-07T20:08:20.710Z,13.52
2019-04-07T20:10:52.316Z,13.52
2019-04-07T20:13:24.071Z,13.56
2019-04-07T20:15:59.174Z,13.62
2019-04-07T20:18:36.028Z,13.59
2019-04-07T20:21:18.508Z,13.57
2019-04-07T20:24:07.249Z,13.58
2019-04-07T20:26:38.524Z,13.55
2019-04-07T20:29:12.270Z,13.53
2019-04-07T20:31:58.341Z,13.50
2019-04-07T20:34:45.835Z,13.44
2019-04-07T20:37:23.745Z,13.42
2019-04-07T20:39:51.906Z,13.42
2019-04-07T20:42:25.743Z,13.40
2019-04-07T20:45:14.163Z,13.42
2019-04-07T20:47:59.189Z,13.41
2019-04-07T20:50:44.118Z,13.36
2019-04-07T20:53:32.761Z,13.34
2019-04-07T20:56:12.863Z,13.29
2019-04-07T20:58:52.487Z,13.21
2019-04-07T21:01:23.195Z,13.16
2019-04-07T21:03:57.871Z,13.13
2019-04-07T21:06:29.932Z,13.08
2019-04-07T21:09:16.200Z,13.10
2019-04-07T21:11:54.753Z,13.00
2019-04-07T21:14:26.088Z,12.99
2019-04-07T21:16:59.349Z,12.98
2019-04-07T21:19:36.497Z,12.93
2019-04-07T21:22:09.387Z,12.86
2019-04-07T21:24:43.472Z,12.80
2019-04-07T21:27:20.782Z,12.68
2019-04-07T21:29:55.718Z,12.62
2019-04-07T21:32:42.243Z,12.63
2019-04-07T21:35:15.002Z,12.58
2019-04-07T21:37:49.052Z,12.48
2019-04-07T21:40:20.969Z,12.47
2019-04-07T21:42:59.394Z,12.44
2019-04-07T21:45:51.599Z,12.40
2019-04-07T21:48:37.391Z,12.41
2019-04-07T21:51:13.458Z,12.38
2019-04-07T21:54:02.189Z,12.37
2019-04-07T21:56:36.934Z,12.36
2019-04-07T21:59:08.935Z,12.30
2019-04-07T22:01:59.214Z,12.29
2019-04-07T22:04:36.494Z,12.20
2019-04-07T22:07:07.583Z,12.15
2019-04-07T22:09:38.674Z,12.06
2019-04-07T22:12:08.536Z,12.07
2019-04-07T22:14:40.885Z,12.03
2019-04-07T22:17:09.646Z,11.96
2019-04-07T22:19:44.203Z,11.82
2019-04-07T22:22:10.878Z,11.79
2019-04-07T22:24:40.594Z,11.71
2019-04-07T22:27:10.040Z,11.68
2019-04-07T22:29:39.672Z,11.69
2019-04-07T22:32:09.068Z,11.67
2019-04-07T22:34:38.498Z,11.64
2019-04-07T22:37:08.258Z,11.56
2019-04-07T22:39:37.688Z,11.58
2019-04-07T22:42:07.141Z,11.58
2019-04-07T22:44:37.726Z,11.58
2019-04-07T22:47:07.241Z,11.51
2019-04-07T22:49:37.507Z,11.53
2019-04-07T22:52:07.611Z,11.47
2019-04-07T22:54:37.523Z,11.48
2019-04-07T22:57:11.085Z,11.50
2019-04-07T22:59:38.500Z,11.50
2019-04-07T23:02:07.948Z,11.43
2019-04-07T23:04:38.481Z,11.43
2019-04-07T23:07:08.264Z,11.45
2019-04-07T23:09:37.932Z,11.50
2019-04-07T23:12:08.471Z,11.49
2019-04-07T23:14:38.021Z,11.39
2019-04-07T23:17:07.882Z,11.36
2019-04-07T23:19:37.837Z,11.25
2019-04-07T23:22:07.545Z,11.21
2019-04-07T23:24:36.958Z,11.16
2019-04-07T23:27:06.365Z,11.15
2019-04-07T23:29:36.635Z,11.11
2019-04-07T23:32:06.171Z,11.13
2019-04-07T23:34:35.941Z,11.13
2019-04-07T23:37:06.073Z,11.09
2019-04-07T23:39:35.626Z,11.07
2019-04-07T23:42:05.629Z,11.02
2019-04-07T23:44:35.271Z,11.03
2019-04-07T23:47:04.815Z,11.02
2019-04-07T23:49:34.298Z,11.02
2019-04-07T23:52:04.733Z,11.01
2019-04-07T23:54:35.176Z,11.01
2019-04-07T23:57:04.766Z,11.02
2019-04-07T23:59:34.684Z,11.03
